sensor_id;sensor_type;location;lat;lon;timestamp;P1;durP1;ratioP1;P2;durP2;ratioP2
946;SDS011;460;48.734;9.152;2023-05-07T00:02:03;2.40;;;2.20;;
946;SDS011;460;48.734;9.152;2023-05-07T00:04:30;2.13;;;2.03;;
946;SDS011;460;48.734;9.152;2023-05-07T00:07:01;2.67;;;2.07;;
946;SDS011;460;48.734;9.152;2023-05-07T00:09:28;2.50;;;2.30;;
946;SDS011;460;48.734;9.152;2023-05-07T00:11:55;2.03;;;1.83;;
946;SDS011;460;48.734;9.152;2023-05-07T00:14:25;2.10;;;1.90;;
946;SDS011;460;48.734;9.152;2023-05-07T00:16:52;2.83;;;2.07;;
946;SDS011;460;48.734;9.152;2023-05-07T00:19:20;1.70;;;1.60;;
946;SDS011;460;48.734;9.152;2023-05-07T00:21:46;1.90;;;1.70;;
946;SDS011;460;48.734;9.152;2023-05-07T00:24:13;1.97;;;1.80;;
946;SDS011;460;48.734;9.152;2023-05-07T00:26:40;1.70;;;1.60;;
946;SDS011;460;48.734;9.152;2023-05-07T00:29:07;2.20;;;2.00;;
946;SDS011;460;48.734;9.152;2023-05-07T00:31:34;1.83;;;1.73;;
946;SDS011;460;48.734;9.152;2023-05-07T00:34:02;1.83;;;1.60;;
946;SDS011;460;48.734;9.152;2023-05-07T00:36:30;2.27;;;1.90;;
946;SDS011;460;48.734;9.152;2023-05-07T00:38:57;2.30;;;2.03;;
946;SDS011;460;48.734;9.152;2023-05-07T00:41:27;2.07;;;1.87;;
946;SDS011;460;48.734;9.152;2023-05-07T00:43:53;2.50;;;2.20;;
946;SDS011;460;48.734;9.152;2023-05-07T00:46:20;2.60;;;2.30;;
946;SDS011;460;48.734;9.152;2023-05-07T00:48:47;1.67;;;1.57;;
946;SDS011;460;48.734;9.152;2023-05-07T00:51:15;2.33;;;2.10;;
946;SDS011;460;48.734;9.152;2023-05-07T00:53:44;4.10;;;3.30;;
946;SDS011;460;48.734;9.152;2023-05-07T00:56:12;2.80;;;2.53;;
946;SDS011;460;48.734;9.152;2023-05-07T00:58:39;1.87;;;1.73;;
946;SDS011;460;48.734;9.152;2023-05-07T01:01:06;2.63;;;2.20;;
946;SDS011;460;48.734;9.152;2023-05-07T01:03:33;2.27;;;2.13;;
946;SDS011;460;48.734;9.152;2023-05-07T01:06:00;1.70;;;1.60;;
946;SDS011;460;48.734;9.152;2023-05-07T01:08:28;2.70;;;2.10;;
946;SDS011;460;48.734;9.152;2023-05-07T01:10:57;1.97;;;1.87;;
946;SDS011;460;48.734;9.152;2023-05-07T01:13:25;2.40;;;2.20;;
946;SDS011;460;48.734;9.152;2023-05-07T01:15:54;8.60;;;2.57;;
946;SDS011;460;48.734;9.152;2023-05-07T01:18:21;2.50;;;2.30;;
946;SDS011;460;48.734;9.152;2023-05-07T01:20:48;3.20;;;2.63;;
946;SDS011;460;48.734;9.152;2023-05-07T01:23:17;2.90;;;2.50;;
946;SDS011;460;48.734;9.152;2023-05-07T01:25:50;2.37;;;2.20;;
946;SDS011;460;48.734;9.152;2023-05-07T01:28:19;2.37;;;2.17;;
946;SDS011;460;48.734;9.152;2023-05-07T01:30:46;1.90;;;1.80;;
946;SDS011;460;48.734;9.152;2023-05-07T01:33:18;2.67;;;2.20;;
946;SDS011;460;48.734;9.152;2023-05-07T01:35:47;2.47;;;2.27;;
946;SDS011;460;48.734;9.152;2023-05-07T01:38:19;4.80;;;2.30;;
946;SDS011;460;48.734;9.152;2023-05-07T01:40:48;2.30;;;2.10;;
946;SDS011;460;48.734;9.152;2023-05-07T01:43:15;3.63;;;2.10;;
946;SDS011;460;48.734;9.152;2023-05-07T01:45:43;3.00;;;2.70;;
946;SDS011;460;48.734;9.152;2023-05-07T01:48:12;2.30;;;2.00;;
946;SDS011;460;48.734;9.152;2023-05-07T01:50:42;3.27;;;3.07;;
946;SDS011;460;48.734;9.152;2023-05-07T01:53:10;2.80;;;1.80;;
946;SDS011;460;48.734;9.152;2023-05-07T01:55:39;3.57;;;2.60;;
946;SDS011;460;48.734;9.152;2023-05-07T01:58:07;5.73;;;2.40;;
946;SDS011;460;48.734;9.152;2023-05-07T02:00:35;2.50;;;2.30;;
946;SDS011;460;48.734;9.152;2023-05-07T02:03:03;2.40;;;1.93;;
946;SDS011;460;48.734;9.152;2023-05-07T02:05:30;2.60;;;2.40;;
946;SDS011;460;48.734;9.152;2023-05-07T02:07:57;3.67;;;2.37;;
946;SDS011;460;48.734;9.152;2023-05-07T02:10:24;2.67;;;2.10;;
946;SDS011;460;48.734;9.152;2023-05-07T02:12:52;3.17;;;2.13;;
946;SDS011;460;48.734;9.152;2023-05-07T02:15:19;2.27;;;2.07;;
946;SDS011;460;48.734;9.152;2023-05-07T02:20:28;2.60;;;2.40;;
946;SDS011;460;48.734;9.152;2023-05-07T02:22:55;2.53;;;2.33;;
946;SDS011;460;48.734;9.152;2023-05-07T02:25:23;2.57;;;2.37;;
946;SDS011;460;48.734;9.152;2023-05-07T02:27:50;2.50;;;2.00;;
946;SDS011;460;48.734;9.152;2023-05-07T02:30:20;2.70;;;2.50;;
946;SDS011;460;48.734;9.152;2023-05-07T02:32:48;2.50;;;2.30;;
946;SDS011;460;48.734;9.152;2023-05-07T02:35:16;2.90;;;2.70;;
946;SDS011;460;48.734;9.152;2023-05-07T02:37:43;4.53;;;3.20;;
946;SDS011;460;48.734;9.152;2023-05-07T02:40:11;3.40;;;3.10;;
946;SDS011;460;48.734;9.152;2023-05-07T02:42:38;3.07;;;2.73;;
946;SDS011;460;48.734;9.152;2023-05-07T02:45:08;2.83;;;2.53;;
946;SDS011;460;48.734;9.152;2023-05-07T02:47:35;3.70;;;3.30;;
946;SDS011;460;48.734;9.152;2023-05-07T02:50:03;2.50;;;2.30;;
946;SDS011;460;48.734;9.152;2023-05-07T02:52:32;2.90;;;2.60;;
946;SDS011;460;48.734;9.152;2023-05-07T02:55:00;4.33;;;3.50;;
946;SDS011;460;48.734;9.152;2023-05-07T02:57:28;4.67;;;3.20;;
946;SDS011;460;48.734;9.152;2023-05-07T02:59:55;2.53;;;2.33;;
946;SDS011;460;48.734;9.152;2023-05-07T03:02:26;2.57;;;2.23;;
946;SDS011;460;48.734;9.152;2023-05-07T03:04:54;3.17;;;2.87;;
946;SDS011;460;48.734;9.152;2023-05-07T03:07:21;3.80;;;3.03;;
946;SDS011;460;48.734;9.152;2023-05-07T03:09:49;3.63;;;3.33;;
946;SDS011;460;48.734;9.152;2023-05-07T03:12:15;3.20;;;2.90;;
946;SDS011;460;48.734;9.152;2023-05-07T03:14:43;3.30;;;3.00;;
946;SDS011;460;48.734;9.152;2023-05-07T03:17:10;2.20;;;2.10;;
946;SDS011;460;48.734;9.152;2023-05-07T03:19:38;3.93;;;2.60;;
946;SDS011;460;48.734;9.152;2023-05-07T03:22:05;3.93;;;3.03;;
946;SDS011;460;48.734;9.152;2023-05-07T03:24:31;3.20;;;2.30;;
946;SDS011;460;48.734;9.152;2023-05-07T03:26:59;3.53;;;2.63;;
946;SDS011;460;48.734;9.152;2023-05-07T03:29:26;3.10;;;2.30;;
946;SDS011;460;48.734;9.152;2023-05-07T03:31:53;3.07;;;2.77;;
946;SDS011;460;48.734;9.152;2023-05-07T03:34:19;2.13;;;1.93;;
946;SDS011;460;48.734;9.152;2023-05-07T03:36:48;3.53;;;2.97;;
946;SDS011;460;48.734;9.152;2023-05-07T03:39:15;3.10;;;2.23;;
946;SDS011;460;48.734;9.152;2023-05-07T03:41:42;2.37;;;2.17;;
946;SDS011;460;48.734;9.152;2023-05-07T03:44:09;2.70;;;2.50;;
946;SDS011;460;48.734;9.152;2023-05-07T03:46:36;2.60;;;2.40;;
946;SDS011;460;48.734;9.152;2023-05-07T03:49:03;2.93;;;2.10;;
946;SDS011;460;48.734;9.152;2023-05-07T03:51:30;2.07;;;1.93;;
946;SDS011;460;48.734;9.152;2023-05-07T03:53:58;2.73;;;2.30;;
946;SDS011;460;48.734;9.152;2023-05-07T03:56:24;5.33;;;3.07;;
946;SDS011;460;48.734;9.152;2023-05-07T03:58:52;3.17;;;2.53;;
946;SDS011;460;48.734;9.152;2023-05-07T04:01:19;2.73;;;2.10;;
946;SDS011;460;48.734;9.152;2023-05-07T04:03:46;2.57;;;2.37;;
946;SDS011;460;48.734;9.152;2023-05-07T04:06:13;3.00;;;2.50;;
946;SDS011;460;48.734;9.152;2023-05-07T04:08:41;2.77;;;2.47;;
946;SDS011;460;48.734;9.152;2023-05-07T04:11:09;3.10;;;2.83;;
946;SDS011;460;48.734;9.152;2023-05-07T04:13:36;3.17;;;2.97;;
946;SDS011;460;48.734;9.152;2023-05-07T04:16:03;5.07;;;2.70;;
946;SDS011;460;48.734;9.152;2023-05-07T04:18:31;3.47;;;2.10;;
946;SDS011;460;48.734;9.152;2023-05-07T04:20:57;2.90;;;2.70;;
946;SDS011;460;48.734;9.152;2023-05-07T04:23:24;3.53;;;2.80;;
946;SDS011;460;48.734;9.152;2023-05-07T04:25:51;2.10;;;1.90;;
946;SDS011;460;48.734;9.152;2023-05-07T04:28:20;4.37;;;2.57;;
946;SDS011;460;48.734;9.152;2023-05-07T04:30:47;3.70;;;2.80;;
946;SDS011;460;48.734;9.152;2023-05-07T04:33:14;4.00;;;2.77;;
946;SDS011;460;48.734;9.152;2023-05-07T04:35:41;3.30;;;2.50;;
946;SDS011;460;48.734;9.152;2023-05-07T04:38:08;4.27;;;2.77;;
946;SDS011;460;48.734;9.152;2023-05-07T04:40:36;2.33;;;2.13;;
946;SDS011;460;48.734;9.152;2023-05-07T04:43:03;2.20;;;1.90;;
946;SDS011;460;48.734;9.152;2023-05-07T04:45:32;3.27;;;2.80;;
946;SDS011;460;48.734;9.152;2023-05-07T04:47:59;2.80;;;1.97;;
946;SDS011;460;48.734;9.152;2023-05-07T04:50:25;2.87;;;2.13;;
946;SDS011;460;48.734;9.152;2023-05-07T04:52:52;2.83;;;2.60;;
946;SDS011;460;48.734;9.152;2023-05-07T04:55:19;4.07;;;2.43;;
946;SDS011;460;48.734;9.152;2023-05-07T04:57:46;2.60;;;2.37;;
946;SDS011;460;48.734;9.152;2023-05-07T05:00:12;3.17;;;1.90;;
946;SDS011;460;48.734;9.152;2023-05-07T05:02:41;1.93;;;1.83;;
946;SDS011;460;48.734;9.152;2023-05-07T05:05:08;2.13;;;2.03;;
946;SDS011;460;48.734;9.152;2023-05-07T05:07:35;3.07;;;2.50;;
946;SDS011;460;48.734;9.152;2023-05-07T05:10:02;4.30;;;2.70;;
946;SDS011;460;48.734;9.152;2023-05-07T05:12:29;2.67;;;2.47;;
946;SDS011;460;48.734;9.152;2023-05-07T05:14:55;3.50;;;2.27;;
946;SDS011;460;48.734;9.152;2023-05-07T05:17:22;2.50;;;2.20;;
946;SDS011;460;48.734;9.152;2023-05-07T05:19:50;4.00;;;2.30;;
946;SDS011;460;48.734;9.152;2023-05-07T05:22:17;1.97;;;1.67;;
946;SDS011;460;48.734;9.152;2023-05-07T05:24:44;2.50;;;2.30;;
946;SDS011;460;48.734;9.152;2023-05-07T05:27:11;2.60;;;2.40;;
946;SDS011;460;48.734;9.152;2023-05-07T05:29:37;2.30;;;2.10;;
946;SDS011;460;48.734;9.152;2023-05-07T05:32:04;1.80;;;1.63;;
946;SDS011;460;48.734;9.152;2023-05-07T05:34:31;5.00;;;2.80;;
946;SDS011;460;48.734;9.152;2023-05-07T05:36:59;3.03;;;2.03;;
946;SDS011;460;48.734;9.152;2023-05-07T05:39:26;2.47;;;2.10;;
946;SDS011;460;48.734;9.152;2023-05-07T05:41:53;4.03;;;2.70;;
946;SDS011;460;48.734;9.152;2023-05-07T05:44:20;3.03;;;1.70;;
946;SDS011;460;48.734;9.152;2023-05-07T05:46:46;2.63;;;2.23;;
946;SDS011;460;48.734;9.152;2023-05-07T05:49:14;4.43;;;2.77;;
946;SDS011;460;48.734;9.152;2023-05-07T05:51:41;2.00;;;1.90;;
946;SDS011;460;48.734;9.152;2023-05-07T05:54:09;2.30;;;2.10;;
946;SDS011;460;48.734;9.152;2023-05-07T05:56:36;2.17;;;1.97;;
946;SDS011;460;48.734;9.152;2023-05-07T05:59:03;2.70;;;2.20;;
946;SDS011;460;48.734;9.152;2023-05-07T06:01:30;2.17;;;1.97;;
946;SDS011;460;48.734;9.152;2023-05-07T06:03:57;2.00;;;1.83;;
946;SDS011;460;48.734;9.152;2023-05-07T06:06:23;1.90;;;1.80;;
946;SDS011;460;48.734;9.152;2023-05-07T06:08:51;1.83;;;1.67;;
946;SDS011;460;48.734;9.152;2023-05-07T06:11:19;1.27;;;1.17;;
946;SDS011;460;48.734;9.152;2023-05-07T06:13:46;2.30;;;2.10;;
946;SDS011;460;48.734;9.152;2023-05-07T06:16:13;2.10;;;2.00;;
946;SDS011;460;48.734;9.152;2023-05-07T06:18:40;1.40;;;1.30;;
946;SDS011;460;48.734;9.152;2023-05-07T06:21:07;1.73;;;1.60;;
946;SDS011;460;48.734;9.152;2023-05-07T06:23:34;1.90;;;1.67;;
946;SDS011;460;48.734;9.152;2023-05-07T06:26:00;1.70;;;1.60;;
946;SDS011;460;48.734;9.152;2023-05-07T06:28:28;1.37;;;1.27;;
946;SDS011;460;48.734;9.152;2023-05-07T06:31:10;2.10;;;1.77;;
946;SDS011;460;48.734;9.152;2023-05-07T06:33:37;1.87;;;1.53;;
946;SDS011;460;48.734;9.152;2023-05-07T06:36:05;1.80;;;1.70;;
946;SDS011;460;48.734;9.152;2023-05-07T06:38:32;2.10;;;1.90;;
946;SDS011;460;48.734;9.152;2023-05-07T06:40:59;3.13;;;2.50;;
946;SDS011;460;48.734;9.152;2023-05-07T06:43:26;3.00;;;1.83;;
946;SDS011;460;48.734;9.152;2023-05-07T06:45:54;1.83;;;1.67;;
946;SDS011;460;48.734;9.152;2023-05-07T06:48:20;2.43;;;2.23;;
946;SDS011;460;48.734;9.152;2023-05-07T06:50:47;2.30;;;2.10;;
946;SDS011;460;48.734;9.152;2023-05-07T06:53:14;2.20;;;2.00;;
946;SDS011;460;48.734;9.152;2023-05-07T06:55:41;4.60;;;2.37;;
946;SDS011;460;48.734;9.152;2023-05-07T06:58:07;2.43;;;2.20;;
946;SDS011;460;48.734;9.152;2023-05-07T07:00:34;2.20;;;1.57;;
946;SDS011;460;48.734;9.152;2023-05-07T07:03:02;1.97;;;1.30;;
946;SDS011;460;48.734;9.152;2023-05-07T07:05:29;2.53;;;1.93;;
946;SDS011;460;48.734;9.152;2023-05-07T07:07:56;3.23;;;2.47;;
946;SDS011;460;48.734;9.152;2023-05-07T07:10:23;2.20;;;1.80;;
946;SDS011;460;48.734;9.152;2023-05-07T07:12:50;2.07;;;1.87;;
946;SDS011;460;48.734;9.152;2023-05-07T07:15:17;3.17;;;2.30;;
946;SDS011;460;48.734;9.152;2023-05-07T07:17:45;1.80;;;1.70;;
946;SDS011;460;48.734;9.152;2023-05-07T07:20:13;2.50;;;2.30;;
946;SDS011;460;48.734;9.152;2023-05-07T07:22:40;1.83;;;1.73;;
946;SDS011;460;48.734;9.152;2023-05-07T07:25:07;2.30;;;2.10;;
946;SDS011;460;48.734;9.152;2023-05-07T07:27:36;2.03;;;1.70;;
946;SDS011;460;48.734;9.152;2023-05-07T07:30:03;2.30;;;1.90;;
946;SDS011;460;48.734;9.152;2023-05-07T07:32:30;2.00;;;1.80;;
946;SDS011;460;48.734;9.152;2023-05-07T07:34:58;2.80;;;2.20;;
946;SDS011;460;48.734;9.152;2023-05-07T07:37:26;2.17;;;2.00;;
946;SDS011;460;48.734;9.152;2023-05-07T07:39:53;2.17;;;1.97;;
946;SDS011;460;48.734;9.152;2023-05-07T07:42:20;1.93;;;1.83;;
946;SDS011;460;48.734;9.152;2023-05-07T07:44:47;2.70;;;2.50;;
946;SDS011;460;48.734;9.152;2023-05-07T07:47:14;2.40;;;1.87;;
946;SDS011;460;48.734;9.152;2023-05-07T07:49:41;1.87;;;1.77;;
946;SDS011;460;48.734;9.152;2023-05-07T07:52:08;2.17;;;2.07;;
946;SDS011;460;48.734;9.152;2023-05-07T07:54:36;2.43;;;2.20;;
946;SDS011;460;48.734;9.152;2023-05-07T07:57:03;2.10;;;2.00;;
946;SDS011;460;48.734;9.152;2023-05-07T07:59:29;1.93;;;1.67;;
946;SDS011;460;48.734;9.152;2023-05-07T08:01:56;2.00;;;1.90;;
946;SDS011;460;48.734;9.152;2023-05-07T08:04:23;2.37;;;2.20;;
946;SDS011;460;48.734;9.152;2023-05-07T08:06:50;2.27;;;2.07;;
946;SDS011;460;48.734;9.152;2023-05-07T08:09:19;2.17;;;1.97;;
946;SDS011;460;48.734;9.152;2023-05-07T08:11:47;2.80;;;2.57;;
946;SDS011;460;48.734;9.152;2023-05-07T08:14:14;1.90;;;1.80;;
946;SDS011;460;48.734;9.152;2023-05-07T08:16:41;2.70;;;2.00;;
946;SDS011;460;48.734;9.152;2023-05-07T08:19:08;2.80;;;1.83;;
946;SDS011;460;48.734;9.152;2023-05-07T08:21:38;2.70;;;1.60;;
946;SDS011;460;48.734;9.152;2023-05-07T08:24:05;2.43;;;2.20;;
946;SDS011;460;48.734;9.152;2023-05-07T08:26:32;2.67;;;2.13;;
946;SDS011;460;48.734;9.152;2023-05-07T08:29:02;2.63;;;2.43;;
946;SDS011;460;48.734;9.152;2023-05-07T08:31:29;2.80;;;2.47;;
946;SDS011;460;48.734;9.152;2023-05-07T08:33:55;2.70;;;2.50;;
946;SDS011;460;48.734;9.152;2023-05-07T08:36:23;1.80;;;1.70;;
946;SDS011;460;48.734;9.152;2023-05-07T08:38:50;2.23;;;2.03;;
946;SDS011;460;48.734;9.152;2023-05-07T08:41:17;3.03;;;1.87;;
946;SDS011;460;48.734;9.152;2023-05-07T08:43:46;2.23;;;1.97;;
946;SDS011;460;48.734;9.152;2023-05-07T08:46:17;2.97;;;1.97;;
946;SDS011;460;48.734;9.152;2023-05-07T08:48:45;2.50;;;2.30;;
946;SDS011;460;48.734;9.152;2023-05-07T08:51:15;1.77;;;1.67;;
946;SDS011;460;48.734;9.152;2023-05-07T08:53:43;4.13;;;2.20;;
946;SDS011;460;48.734;9.152;2023-05-07T08:56:11;2.60;;;2.33;;
946;SDS011;460;48.734;9.152;2023-05-07T08:58:41;2.50;;;2.30;;
946;SDS011;460;48.734;9.152;2023-05-07T09:01:08;2.57;;;2.37;;
946;SDS011;460;48.734;9.152;2023-05-07T09:03:39;2.20;;;2.10;;
946;SDS011;460;48.734;9.152;2023-05-07T09:06:06;2.43;;;2.23;;
946;SDS011;460;48.734;9.152;2023-05-07T09:08:33;3.17;;;2.20;;
946;SDS011;460;48.734;9.152;2023-05-07T09:11:01;2.60;;;2.40;;
946;SDS011;460;48.734;9.152;2023-05-07T09:13:30;2.20;;;2.10;;
946;SDS011;460;48.734;9.152;2023-05-07T09:15:56;3.00;;;2.70;;
946;SDS011;460;48.734;9.152;2023-05-07T09:18:26;2.43;;;2.30;;
946;SDS011;460;48.734;9.152;2023-05-07T09:21:15;2.90;;;2.07;;
946;SDS011;460;48.734;9.152;2023-05-07T09:25:06;1.97;;;1.87;;
946;SDS011;460;48.734;9.152;2023-05-07T09:28:23;2.23;;;1.97;;
946;SDS011;460;48.734;9.152;2023-05-07T09:30:53;2.73;;;2.53;;
946;SDS011;460;48.734;9.152;2023-05-07T09:33:22;1.90;;;1.80;;
946;SDS011;460;48.734;9.152;2023-05-07T09:35:53;1.70;;;1.60;;
946;SDS011;460;48.734;9.152;2023-05-07T09:38:21;3.17;;;2.20;;
946;SDS011;460;48.734;9.152;2023-05-07T09:40:48;1.80;;;1.70;;
946;SDS011;460;48.734;9.152;2023-05-07T09:43:31;2.87;;;2.47;;
946;SDS011;460;48.734;9.152;2023-05-07T09:45:59;1.73;;;1.63;;
946;SDS011;460;48.734;9.152;2023-05-07T09:48:29;1.90;;;1.77;;
946;SDS011;460;48.734;9.152;2023-05-07T09:50:57;2.47;;;2.07;;
946;SDS011;460;48.734;9.152;2023-05-07T09:53:30;1.60;;;1.53;;
946;SDS011;460;48.734;9.152;2023-05-07T09:55:57;1.70;;;1.60;;
946;SDS011;460;48.734;9.152;2023-05-07T09:58:25;1.80;;;1.70;;
946;SDS011;460;48.734;9.152;2023-05-07T10:00:52;2.50;;;2.30;;
946;SDS011;460;48.734;9.152;2023-05-07T10:03:19;6.00;;;1.97;;
946;SDS011;460;48.734;9.152;2023-05-07T10:05:47;1.60;;;1.50;;
946;SDS011;460;48.734;9.152;2023-05-07T10:08:16;1.60;;;1.50;;
946;SDS011;460;48.734;9.152;2023-05-07T10:10:46;2.60;;;2.40;;
946;SDS011;460;48.734;9.152;2023-05-07T10:13:13;2.45;;;2.25;;
946;SDS011;460;48.734;9.152;2023-05-07T10:15:40;2.13;;;1.73;;
946;SDS011;460;48.734;9.152;2023-05-07T10:18:07;1.73;;;1.63;;
946;SDS011;460;48.734;9.152;2023-05-07T10:20:34;1.83;;;1.73;;
946;SDS011;460;48.734;9.152;2023-05-07T10:23:04;1.83;;;1.73;;
946;SDS011;460;48.734;9.152;2023-05-07T10:25:31;2.00;;;1.90;;
946;SDS011;460;48.734;9.152;2023-05-07T10:28:01;1.50;;;1.40;;
946;SDS011;460;48.734;9.152;2023-05-07T10:30:34;2.17;;;2.00;;
946;SDS011;460;48.734;9.152;2023-05-07T10:33:10;2.10;;;2.00;;
946;SDS011;460;48.734;9.152;2023-05-07T10:35:40;1.90;;;1.37;;
946;SDS011;460;48.734;9.152;2023-05-07T10:38:09;1.90;;;1.80;;
946;SDS011;460;48.734;9.152;2023-05-07T10:40:36;2.17;;;2.07;;
946;SDS011;460;48.734;9.152;2023-05-07T10:43:05;2.43;;;2.23;;
946;SDS011;460;48.734;9.152;2023-05-07T10:45:32;2.47;;;2.27;;
946;SDS011;460;48.734;9.152;2023-05-07T10:48:06;1.73;;;1.63;;
946;SDS011;460;48.734;9.152;2023-05-07T10:50:34;1.73;;;1.63;;
946;SDS011;460;48.734;9.152;2023-05-07T10:55:49;2.47;;;2.23;;
946;SDS011;460;48.734;9.152;2023-05-07T10:58:23;1.70;;;1.60;;
946;SDS011;460;48.734;9.152;2023-05-07T11:00:55;2.17;;;1.93;;
946;SDS011;460;48.734;9.152;2023-05-07T11:03:23;1.83;;;1.73;;
946;SDS011;460;48.734;9.152;2023-05-07T11:08:54;1.80;;;1.70;;
946;SDS011;460;48.734;9.152;2023-05-07T11:14:14;1.90;;;1.80;;
946;SDS011;460;48.734;9.152;2023-05-07T11:17:11;1.80;;;1.70;;
946;SDS011;460;48.734;9.152;2023-05-07T11:19:50;2.20;;;1.83;;
946;SDS011;460;48.734;9.152;2023-05-07T11:22:36;2.70;;;1.87;;
946;SDS011;460;48.734;9.152;2023-05-07T11:25:06;2.33;;;2.13;;
946;SDS011;460;48.734;9.152;2023-05-07T11:27:33;1.60;;;1.50;;
946;SDS011;460;48.734;9.152;2023-05-07T11:30:01;3.33;;;2.00;;
946;SDS011;460;48.734;9.152;2023-05-07T11:32:29;1.47;;;1.37;;
946;SDS011;460;48.734;9.152;2023-05-07T11:34:57;2.23;;;1.97;;
946;SDS011;460;48.734;9.152;2023-05-07T11:37:26;1.90;;;1.80;;
946;SDS011;460;48.734;9.152;2023-05-07T11:40:02;2.60;;;1.80;;
946;SDS011;460;48.734;9.152;2023-05-07T11:42:30;2.10;;;2.00;;
946;SDS011;460;48.734;9.152;2023-05-07T11:44:58;2.23;;;2.13;;
946;SDS011;460;48.734;9.152;2023-05-07T11:47:31;1.93;;;1.83;;
946;SDS011;460;48.734;9.152;2023-05-07T11:50:02;1.93;;;1.67;;
946;SDS011;460;48.734;9.152;2023-05-07T11:52:30;1.87;;;1.77;;
946;SDS011;460;48.734;9.152;2023-05-07T11:54:57;1.90;;;1.80;;
946;SDS011;460;48.734;9.152;2023-05-07T11:57:26;2.00;;;1.90;;
946;SDS011;460;48.734;9.152;2023-05-07T11:59:53;2.77;;;2.57;;
946;SDS011;460;48.734;9.152;2023-05-07T12:02:22;1.77;;;1.67;;
946;SDS011;460;48.734;9.152;2023-05-07T12:04:50;2.60;;;2.40;;
946;SDS011;460;48.734;9.152;2023-05-07T12:07:17;2.30;;;1.87;;
946;SDS011;460;48.734;9.152;2023-05-07T12:09:44;3.13;;;2.10;;
946;SDS011;460;48.734;9.152;2023-05-07T12:12:12;1.30;;;1.20;;
946;SDS011;460;48.734;9.152;2023-05-07T12:14:43;2.20;;;2.03;;
946;SDS011;460;48.734;9.152;2023-05-07T12:17:12;1.90;;;1.80;;
946;SDS011;460;48.734;9.152;2023-05-07T12:19:42;1.47;;;1.37;;
946;SDS011;460;48.734;9.152;2023-05-07T12:22:10;2.80;;;1.80;;
946;SDS011;460;48.734;9.152;2023-05-07T12:24:44;2.37;;;2.17;;
946;SDS011;460;48.734;9.152;2023-05-07T12:27:12;1.73;;;1.53;;
946;SDS011;460;48.734;9.152;2023-05-07T12:29:39;1.53;;;1.43;;
946;SDS011;460;48.734;9.152;2023-05-07T12:32:12;1.60;;;1.50;;
946;SDS011;460;48.734;9.152;2023-05-07T12:34:42;2.30;;;1.37;;
946;SDS011;460;48.734;9.152;2023-05-07T12:37:08;1.80;;;1.10;;
946;SDS011;460;48.734;9.152;2023-05-07T12:39:36;1.67;;;1.57;;
946;SDS011;460;48.734;9.152;2023-05-07T12:42:03;1.13;;;1.03;;
946;SDS011;460;48.734;9.152;2023-05-07T12:44:30;1.03;;;0.83;;
946;SDS011;460;48.734;9.152;2023-05-07T12:47:01;0.80;;;0.60;;
946;SDS011;460;48.734;9.152;2023-05-07T12:49:28;0.87;;;0.87;;
946;SDS011;460;48.734;9.152;2023-05-07T12:51:57;1.40;;;0.90;;
946;SDS011;460;48.734;9.152;2023-05-07T12:54:28;1.10;;;1.00;;
946;SDS011;460;48.734;9.152;2023-05-07T12:57:01;0.70;;;0.60;;
946;SDS011;460;48.734;9.152;2023-05-07T12:59:32;1.00;;;0.57;;
946;SDS011;460;48.734;9.152;2023-05-07T13:02:02;1.27;;;0.60;;
946;SDS011;460;48.734;9.152;2023-05-07T13:04:29;0.63;;;0.63;;
946;SDS011;460;48.734;9.152;2023-05-07T13:06:57;0.70;;;0.67;;
946;SDS011;460;48.734;9.152;2023-05-07T13:09:24;3.43;;;0.60;;
946;SDS011;460;48.734;9.152;2023-05-07T13:11:51;1.07;;;0.73;;
946;SDS011;460;48.734;9.152;2023-05-07T13:14:18;0.60;;;0.60;;
946;SDS011;460;48.734;9.152;2023-05-07T13:16:45;0.77;;;0.73;;
946;SDS011;460;48.734;9.152;2023-05-07T13:19:12;0.73;;;0.70;;
946;SDS011;460;48.734;9.152;2023-05-07T13:21:39;1.27;;;1.10;;
946;SDS011;460;48.734;9.152;2023-05-07T13:24:08;0.90;;;0.90;;
946;SDS011;460;48.734;9.152;2023-05-07T13:26:34;1.20;;;1.10;;
946;SDS011;460;48.734;9.152;2023-05-07T13:29:01;1.50;;;1.40;;
946;SDS011;460;48.734;9.152;2023-05-07T13:31:28;1.43;;;0.90;;
946;SDS011;460;48.734;9.152;2023-05-07T13:33:55;0.70;;;0.70;;
946;SDS011;460;48.734;9.152;2023-05-07T13:36:22;1.17;;;1.07;;
946;SDS011;460;48.734;9.152;2023-05-07T13:38:51;0.80;;;0.80;;
946;SDS011;460;48.734;9.152;2023-05-07T13:41:19;2.10;;;0.80;;
946;SDS011;460;48.734;9.152;2023-05-07T13:43:46;1.10;;;1.00;;
946;SDS011;460;48.734;9.152;2023-05-07T13:46:16;1.00;;;0.80;;
946;SDS011;460;48.734;9.152;2023-05-07T13:48:45;0.70;;;0.70;;
946;SDS011;460;48.734;9.152;2023-05-07T13:51:12;1.33;;;0.90;;
946;SDS011;460;48.734;9.152;2023-05-07T13:53:39;1.47;;;0.63;;
946;SDS011;460;48.734;9.152;2023-05-07T13:56:06;0.87;;;0.50;;
946;SDS011;460;48.734;9.152;2023-05-07T13:58:34;1.00;;;0.70;;
946;SDS011;460;48.734;9.152;2023-05-07T14:01:01;1.10;;;1.00;;
946;SDS011;460;48.734;9.152;2023-05-07T14:03:30;1.40;;;0.90;;
946;SDS011;460;48.734;9.152;2023-05-07T14:05:58;1.17;;;1.00;;
946;SDS011;460;48.734;9.152;2023-05-07T14:08:26;1.17;;;1.07;;
946;SDS011;460;48.734;9.152;2023-05-07T14:10:53;1.63;;;1.53;;
946;SDS011;460;48.734;9.152;2023-05-07T14:13:20;2.03;;;1.47;;
946;SDS011;460;48.734;9.152;2023-05-07T14:15:48;1.70;;;1.53;;
946;SDS011;460;48.734;9.152;2023-05-07T14:18:15;1.70;;;1.60;;
946;SDS011;460;48.734;9.152;2023-05-07T14:20:42;1.33;;;1.23;;
946;SDS011;460;48.734;9.152;2023-05-07T14:23:11;1.73;;;1.47;;
946;SDS011;460;48.734;9.152;2023-05-07T14:25:38;1.53;;;1.43;;
946;SDS011;460;48.734;9.152;2023-05-07T14:28:05;1.20;;;1.10;;
946;SDS011;460;48.734;9.152;2023-05-07T14:30:31;2.00;;;1.70;;
946;SDS011;460;48.734;9.152;2023-05-07T14:32:59;1.73;;;1.30;;
946;SDS011;460;48.734;9.152;2023-05-07T14:35:26;2.03;;;1.40;;
946;SDS011;460;48.734;9.152;2023-05-07T14:37:53;1.53;;;1.43;;
946;SDS011;460;48.734;9.152;2023-05-07T14:40:20;3.30;;;2.20;;
946;SDS011;460;48.734;9.152;2023-05-07T14:42:47;4.90;;;1.53;;
946;SDS011;460;48.734;9.152;2023-05-07T14:45:14;2.33;;;1.57;;
946;SDS011;460;48.734;9.152;2023-05-07T14:47:41;1.03;;;1.03;;
946;SDS011;460;48.734;9.152;2023-05-07T14:50:09;3.10;;;1.70;;
946;SDS011;460;48.734;9.152;2023-05-07T14:52:36;1.83;;;1.73;;
946;SDS011;460;48.734;9.152;2023-05-07T14:55:03;4.93;;;1.97;;
946;SDS011;460;48.734;9.152;2023-05-07T14:57:30;2.00;;;1.80;;
946;SDS011;460;48.734;9.152;2023-05-07T14:59:59;1.63;;;1.53;;
946;SDS011;460;48.734;9.152;2023-05-07T15:02:26;1.37;;;1.30;;
946;SDS011;460;48.734;9.152;2023-05-07T15:04:53;1.93;;;1.50;;
946;SDS011;460;48.734;9.152;2023-05-07T15:07:21;1.23;;;1.13;;
946;SDS011;460;48.734;9.152;2023-05-07T15:09:48;2.20;;;1.60;;
946;SDS011;460;48.734;9.152;2023-05-07T15:12:16;1.70;;;1.60;;
946;SDS011;460;48.734;9.152;2023-05-07T15:14:42;1.40;;;1.30;;
946;SDS011;460;48.734;9.152;2023-05-07T15:17:09;1.53;;;1.43;;
946;SDS011;460;48.734;9.152;2023-05-07T15:19:36;1.47;;;1.37;;
946;SDS011;460;48.734;9.152;2023-05-07T15:22:03;1.27;;;1.17;;
946;SDS011;460;48.734;9.152;2023-05-07T15:24:32;1.80;;;1.47;;
946;SDS011;460;48.734;9.152;2023-05-07T15:26:58;1.73;;;1.63;;
946;SDS011;460;48.734;9.152;2023-05-07T15:29:26;2.20;;;2.00;;
946;SDS011;460;48.734;9.152;2023-05-07T15:31:52;1.73;;;1.63;;
946;SDS011;460;48.734;9.152;2023-05-07T15:34:20;1.50;;;1.33;;
946;SDS011;460;48.734;9.152;2023-05-07T15:36:47;1.60;;;1.17;;
946;SDS011;460;48.734;9.152;2023-05-07T15:39:13;1.73;;;1.63;;
946;SDS011;460;48.734;9.152;2023-05-07T15:41:42;1.70;;;1.60;;
946;SDS011;460;48.734;9.152;2023-05-07T15:44:09;1.53;;;1.43;;
946;SDS011;460;48.734;9.152;2023-05-07T15:46:35;1.23;;;1.13;;
946;SDS011;460;48.734;9.152;2023-05-07T15:49:02;2.90;;;2.10;;
946;SDS011;460;48.734;9.152;2023-05-07T15:51:30;1.30;;;1.20;;
946;SDS011;460;48.734;9.152;2023-05-07T15:53:56;1.83;;;1.73;;
946;SDS011;460;48.734;9.152;2023-05-07T15:56:23;1.67;;;1.57;;
946;SDS011;460;48.734;9.152;2023-05-07T15:58:51;1.83;;;1.63;;
946;SDS011;460;48.734;9.152;2023-05-07T16:01:18;2.90;;;1.80;;
946;SDS011;460;48.734;9.152;2023-05-07T16:03:45;1.53;;;1.43;;